createdAt,value
2018-02-25T00:01:15.874Z,68.87
2018-02-25T00:03:44.376Z,68.90
2018-02-25T00:06:12.838Z,68.79
2018-02-25T00:08:41.323Z,68.88
2018-02-25T00:11:09.818Z,68.87
2018-02-25T00:13:38.324Z,69.03
2018-02-25T00:16:06.836Z,69.00
2018-02-25T00:18:35.318Z,68.93
2018-02-25T00:21:03.852Z,68.97
2018-02-25T00:23:32.320Z,69.32
2018-02-25T00:26:00.778Z,69.04
2018-02-25T00:28:29.276Z,68.90
2018-02-25T00:30:57.729Z,68.88
2018-02-25T00:33:26.235Z,70.00
2018-02-25T00:35:54.733Z,69.83
2018-02-25T00:38:23.198Z,69.96
2018-02-25T00:40:51.700Z,69.23
2018-02-25T00:43:20.157Z,69.52
2018-02-25T00:45:48.675Z,69.46
2018-02-25T00:48:17.139Z,68.95
2018-02-25T00:50:45.641Z,68.79
2018-02-25T00:53:14.122Z,68.83
2018-02-25T00:55:42.628Z,68.82
2018-02-25T00:58:11.110Z,68.92
2018-02-25T01:00:39.629Z,68.98
2018-02-25T01:03:08.138Z,68.80
2018-02-25T01:05:36.634Z,68.61
2018-02-25T01:08:05.138Z,68.82
2018-02-25T01:10:33.775Z,68.63
2018-02-25T01:13:02.270Z,69.54
2018-02-25T01:15:30.801Z,69.70
2018-02-25T01:17:59.266Z,69.21
2018-02-25T01:20:27.741Z,69.23
2018-02-25T01:22:56.234Z,69.07
2018-02-25T01:25:24.691Z,69.01
2018-02-25T01:27:53.209Z,68.88
2018-02-25T01:30:21.670Z,69.21
2018-02-25T01:32:50.175Z,68.89
2018-02-25T01:35:18.656Z,68.85
2018-02-25T01:37:47.153Z,69.24
2018-02-25T01:40:15.621Z,69.56
2018-02-25T01:42:44.114Z,69.90
2018-02-25T01:45:12.586Z,66.80
2018-02-25T01:47:41.073Z,66.70
2018-02-25T01:50:09.527Z,65.32
2018-02-25T01:52:38.036Z,63.58
2018-02-25T01:55:06.547Z,64.08
2018-02-25T01:57:35.004Z,64.12
2018-02-25T02:00:03.509Z,64.13
2018-02-25T02:02:32.042Z,62.80
2018-02-25T02:05:00.516Z,60.82
2018-02-25T02:07:29.030Z,60.20
2018-02-25T02:09:57.538Z,61.42
2018-02-25T02:12:25.979Z,60.61
2018-02-25T02:14:54.502Z,61.06
2018-02-25T02:17:23.017Z,60.98
2018-02-25T02:19:51.501Z,61.16
2018-02-25T02:22:20.060Z,60.48
2018-02-25T02:24:48.526Z,60.30
2018-02-25T02:27:16.996Z,59.75
2018-02-25T02:29:45.498Z,60.14
2018-02-25T02:32:13.978Z,59.81
2018-02-25T02:34:42.441Z,59.59
2018-02-25T02:37:10.946Z,59.58
2018-02-25T02:39:39.442Z,59.57
2018-02-25T02:42:07.912Z,59.88
2018-02-25T02:44:36.422Z,60.13
2018-02-25T02:47:04.888Z,59.81
2018-02-25T02:49:33.378Z,59.46
2018-02-25T02:52:01.878Z,59.36
2018-02-25T02:54:30.371Z,59.46
2018-02-25T02:56:58.861Z,59.40
2018-02-25T02:59:27.365Z,59.84
2018-02-25T03:01:55.939Z,59.67
2018-02-25T03:04:24.377Z,58.90
2018-02-25T03:06:52.990Z,58.70
2018-02-25T03:09:21.454Z,58.43
2018-02-25T03:11:49.943Z,58.57
2018-02-25T03:14:18.401Z,58.31
2018-02-25T03:16:46.902Z,58.37
2018-02-25T03:19:15.363Z,58.24
2018-02-25T03:21:43.853Z,58.18
2018-02-25T03:24:12.383Z,58.29
2018-02-25T03:26:40.912Z,57.58
2018-02-25T03:29:09.435Z,57.37
2018-02-25T03:31:37.898Z,56.91
2018-02-25T03:34:06.395Z,56.65
2018-02-25T03:36:34.890Z,56.94
2018-02-25T03:39:03.390Z,56.83
2018-02-25T03:41:31.926Z,57.61
2018-02-25T03:44:00.385Z,56.77
2018-02-25T03:46:28.919Z,57.83
2018-02-25T03:48:57.421Z,57.38
2018-02-25T03:51:25.922Z,58.36
2018-02-25T03:53:54.394Z,57.81
2018-02-25T03:56:22.854Z,57.64
2018-02-25T03:58:51.350Z,57.59
2018-02-25T04:01:19.812Z,57.37
2018-02-25T04:03:48.314Z,58.22
2018-02-25T04:06:16.782Z,57.71
2018-02-25T04:08:45.281Z,57.12
2018-02-25T04:11:13.747Z,56.89
2018-02-25T04:13:42.273Z,56.73
2018-02-25T04:16:10.719Z,56.84
2018-02-25T04:18:39.230Z,56.82
2018-02-25T04:21:07.719Z,57.36
2018-02-25T04:23:36.194Z,57.60
2018-02-25T04:26:04.676Z,57.33
2018-02-25T04:28:33.123Z,57.04
2018-02-25T04:31:01.618Z,57.38
2018-02-25T04:33:30.089Z,56.84
2018-02-25T04:35:58.581Z,56.00
2018-02-25T04:38:27.130Z,56.34
2018-02-25T04:40:55.661Z,55.44
2018-02-25T04:43:24.158Z,55.11
2018-02-25T04:45:52.618Z,55.14
2018-02-25T04:48:21.122Z,55.71
2018-02-25T04:50:49.642Z,55.23
2018-02-25T04:53:18.157Z,55.69
2018-02-25T04:55:46.669Z,56.06
2018-02-25T04:58:15.131Z,56.65
2018-02-25T05:00:43.598Z,55.21
2018-02-25T05:03:12.079Z,55.48
2018-02-25T05:05:40.576Z,55.26
2018-02-25T05:08:09.070Z,55.59
2018-02-25T05:10:37.596Z,55.95
2018-02-25T05:13:06.109Z,55.92
2018-02-25T05:15:34.597Z,55.64
2018-02-25T05:18:03.062Z,56.48
2018-02-25T05:20:31.561Z,55.18
2018-02-25T05:23:00.022Z,55.70
2018-02-25T05:25:28.546Z,55.48
2018-02-25T05:27:57.030Z,55.44
2018-02-25T05:30:25.486Z,54.99
2018-02-25T05:32:53.982Z,55.50
2018-02-25T05:35:22.429Z,55.41
2018-02-25T05:37:50.926Z,54.62
2018-02-25T05:40:19.427Z,54.79
2018-02-25T05:42:47.925Z,54.89
2018-02-25T05:45:16.390Z,55.15
2018-02-25T05:47:44.898Z,56.07
2018-02-25T05:50:13.362Z,55.93
2018-02-25T05:52:41.842Z,55.82
2018-02-25T05:55:10.333Z,56.04
2018-02-25T05:57:38.850Z,55.93
2018-02-25T06:00:07.350Z,55.82
2018-02-25T06:02:35.818Z,56.32
2018-02-25T06:05:04.367Z,55.77
2018-02-25T06:07:32.862Z,55.96
2018-02-25T06:10:01.368Z,56.09
2018-02-25T06:12:29.832Z,56.36
2018-02-25T06:14:58.334Z,56.43
2018-02-25T06:17:26.790Z,55.36
2018-02-25T06:19:55.316Z,55.70
2018-02-25T06:22:23.819Z,56.12
2018-02-25T06:24:52.321Z,56.14
2018-02-25T06:27:20.806Z,56.71
2018-02-25T06:29:49.343Z,55.98
2018-02-25T06:32:17.834Z,55.57
2018-02-25T06:34:46.322Z,55.55
2018-02-25T06:37:14.819Z,55.07
2018-02-25T06:39:43.269Z,56.68
2018-02-25T06:42:11.769Z,59.07
2018-02-25T06:44:40.242Z,60.85
2018-02-25T06:47:08.760Z,60.07
2018-02-25T06:49:37.226Z,65.43
2018-02-25T06:52:05.686Z,65.13
2018-02-25T06:54:34.204Z,64.49
2018-02-25T06:57:02.714Z,67.39
2018-02-25T06:59:31.230Z,69.19
2018-02-25T07:01:59.682Z,71.24
2018-02-25T07:04:28.204Z,71.66
2018-02-25T07:06:56.672Z,71.28
2018-02-25T07:09:25.160Z,69.53
2018-02-25T07:11:53.673Z,68.79
2018-02-25T07:14:22.126Z,69.40
2018-02-25T07:16:50.614Z,69.19
2018-02-25T07:19:19.103Z,67.90
2018-02-25T07:21:47.566Z,67.61
2018-02-25T07:24:16.063Z,67.48
2018-02-25T07:26:44.599Z,67.21
2018-02-25T07:29:13.034Z,68.44
2018-02-25T07:31:41.502Z,66.69
2018-02-25T07:34:10.008Z,66.66
2018-02-25T07:36:38.465Z,66.37
2018-02-25T07:39:06.953Z,66.07
2018-02-25T07:41:35.609Z,65.72
2018-02-25T07:44:04.127Z,66.30
2018-02-25T07:46:32.581Z,66.55
2018-02-25T07:49:01.087Z,65.93
2018-02-25T07:51:29.632Z,65.47
2018-02-25T07:53:58.110Z,65.81
2018-02-25T07:56:26.612Z,65.89
2018-02-25T07:58:55.074Z,65.74
2018-02-25T08:01:23.583Z,66.10
2018-02-25T08:03:52.037Z,65.98
2018-02-25T08:06:20.550Z,66.31
2018-02-25T08:08:49.054Z,67.59
2018-02-25T08:11:17.506Z,67.39
2018-02-25T08:13:46.006Z,67.88
2018-02-25T08:16:14.515Z,68.93
2018-02-25T08:18:43.009Z,70.51
2018-02-25T08:21:11.498Z,68.93
2018-02-25T08:23:39.950Z,67.99
2018-02-25T08:26:08.492Z,67.45
2018-02-25T08:28:37.025Z,68.25
2018-02-25T08:31:05.517Z,67.70
2018-02-25T08:33:33.978Z,66.88
2018-02-25T08:36:02.465Z,66.48
2018-02-25T08:38:30.922Z,64.81
2018-02-25T08:40:59.433Z,66.52
2018-02-25T08:43:27.934Z,66.18
2018-02-25T08:45:56.411Z,66.33
2018-02-25T08:48:24.914Z,66.06
2018-02-25T08:50:53.398Z,65.22
2018-02-25T08:53:21.859Z,64.91
2018-02-25T08:55:50.354Z,65.06
2018-02-25T08:58:18.810Z,65.40
2018-02-25T09:00:47.302Z,64.83
2018-02-25T09:03:15.768Z,64.93
2018-02-25T09:05:44.274Z,64.80
2018-02-25T09:08:12.782Z,64.97
2018-02-25T09:10:41.242Z,64.88
2018-02-25T09:13:09.702Z,66.36
2018-02-25T09:15:38.226Z,65.72
2018-02-25T09:18:06.671Z,65.21
2018-02-25T09:20:35.802Z,65.87
2018-02-25T09:23:04.262Z,65.10
2018-02-25T09:25:32.755Z,64.76
2018-02-25T09:28:01.276Z,64.29
2018-02-25T09:30:29.735Z,63.64
2018-02-25T09:32:58.194Z,63.36
2018-02-25T09:35:26.688Z,63.29
2018-02-25T09:37:55.230Z,63.72
2018-02-25T09:40:23.698Z,63.32
2018-02-25T09:42:52.162Z,63.72
2018-02-25T09:45:20.664Z,63.26
2018-02-25T09:47:49.197Z,63.83
2018-02-25T09:50:17.697Z,64.00
2018-02-25T09:52:46.158Z,64.08
2018-02-25T09:55:14.650Z,64.49
2018-02-25T09:57:43.106Z,64.68
2018-02-25T10:00:11.630Z,64.43
2018-02-25T10:02:40.099Z,64.46
2018-02-25T10:05:08.586Z,64.82
2018-02-25T10:07:37.078Z,64.79
2018-02-25T10:10:05.545Z,64.51
2018-02-25T10:12:34.092Z,64.46
2018-02-25T10:15:02.550Z,64.50
2018-02-25T10:17:31.066Z,64.64
2018-02-25T10:19:59.581Z,64.86
2018-02-25T10:22:28.090Z,64.89
2018-02-25T10:24:56.547Z,64.75
2018-02-25T10:27:25.049Z,65.00
2018-02-25T10:29:53.547Z,65.20
2018-02-25T10:32:22.054Z,65.32
2018-02-25T10:34:50.548Z,63.87
2018-02-25T10:37:19.009Z,63.18
2018-02-25T10:39:47.498Z,62.69
2018-02-25T10:42:15.971Z,62.73
2018-02-25T10:44:44.458Z,62.22
2018-02-25T10:47:12.919Z,62.00
2018-02-25T10:49:41.425Z,61.42
2018-02-25T10:52:09.886Z,61.37
2018-02-25T10:54:38.347Z,61.93
2018-02-25T10:57:06.846Z,61.80
2018-02-25T10:59:35.302Z,61.87
2018-02-25T11:02:03.799Z,62.39
2018-02-25T11:04:32.274Z,62.48
2018-02-25T11:07:00.787Z,61.71
2018-02-25T11:09:29.254Z,62.44
2018-02-25T11:11:57.716Z,62.13
2018-02-25T11:14:26.217Z,62.10
2018-02-25T11:16:54.678Z,63.28
2018-02-25T11:19:23.166Z,63.61
2018-02-25T11:21:51.638Z,63.21
2018-02-25T11:24:20.150Z,62.38
2018-02-25T11:26:48.605Z,62.77
2018-02-25T11:29:17.066Z,62.38
2018-02-25T11:31:45.566Z,62.08
2018-02-25T11:34:14.079Z,61.45
2018-02-25T11:36:42.579Z,61.55
2018-02-25T11:39:11.025Z,61.62
2018-02-25T11:41:39.514Z,61.00
2018-02-25T11:44:08.030Z,61.28
2018-02-25T11:46:36.541Z,61.37
2018-02-25T11:49:05.002Z,61.55
2018-02-25T11:51:33.517Z,61.47
2018-02-25T11:54:01.990Z,62.04
2018-02-25T11:56:30.448Z,62.05
2018-02-25T11:58:58.954Z,62.22
2018-02-25T12:01:27.414Z,62.43
2018-02-25T12:03:55.910Z,61.63
2018-02-25T12:06:24.384Z,61.80
2018-02-25T12:08:52.881Z,62.48
2018-02-25T12:11:21.365Z,62.23
2018-02-25T12:13:49.871Z,62.68
2018-02-25T12:16:18.329Z,62.42
2018-02-25T12:18:46.794Z,62.18
2018-02-25T12:21:15.320Z,62.00
2018-02-25T12:23:43.783Z,60.71
2018-02-25T12:26:12.278Z,59.72
2018-02-25T12:28:40.741Z,59.84
2018-02-25T12:31:09.239Z,60.66
2018-02-25T12:33:37.698Z,60.89
2018-02-25T12:36:06.158Z,61.50
2018-02-25T12:38:34.661Z,61.39
2018-02-25T12:41:03.139Z,61.06
2018-02-25T12:43:31.646Z,61.14
2018-02-25T12:46:00.106Z,61.84
2018-02-25T12:48:28.621Z,61.37
2018-02-25T12:50:57.110Z,61.86
2018-02-25T12:53:25.570Z,60.71
2018-02-25T12:55:54.066Z,61.12
2018-02-25T12:58:22.532Z,61.03
2018-02-25T13:00:51.045Z,60.89
2018-02-25T13:03:19.562Z,60.87
2018-02-25T13:05:48.050Z,60.89
2018-02-25T13:08:16.538Z,60.40
2018-02-25T13:10:45.012Z,60.52
2018-02-25T13:13:13.522Z,61.21
2018-02-25T13:15:41.986Z,61.13
2018-02-25T13:18:10.486Z,60.74
2018-02-25T13:20:38.979Z,61.28
2018-02-25T13:23:07.486Z,60.56
2018-02-25T13:25:35.962Z,60.36
2018-02-25T13:28:04.474Z,60.69
2018-02-25T13:30:32.936Z,61.28
2018-02-25T13:33:01.526Z,61.53
2018-02-25T13:35:30.026Z,61.45
2018-02-25T13:37:58.462Z,60.49
2018-02-25T13:40:26.914Z,60.76
2018-02-25T13:42:55.382Z,61.10
2018-02-25T13:45:23.838Z,61.71
2018-02-25T13:47:52.337Z,61.74
2018-02-25T13:50:20.790Z,61.74
2018-02-25T13:52:49.227Z,61.19
2018-02-25T13:55:17.716Z,61.44
2018-02-25T13:57:46.169Z,61.84
2018-02-25T14:00:14.666Z,61.71
2018-02-25T14:02:43.163Z,62.22
2018-02-25T14:05:11.607Z,62.77
2018-02-25T14:07:40.093Z,62.67
2018-02-25T14:10:08.546Z,62.39
2018-02-25T14:12:37.066Z,62.44
2018-02-25T14:15:05.522Z,61.95
2018-02-25T14:17:34.038Z,62.04
2018-02-25T14:20:02.589Z,62.87
2018-02-25T14:22:31.058Z,62.80
2018-02-25T14:24:59.550Z,62.90
2018-02-25T14:27:28.006Z,62.71
2018-02-25T14:29:56.579Z,62.86
2018-02-25T14:32:25.041Z,62.90
2018-02-25T14:34:53.506Z,63.56
2018-02-25T14:37:22.058Z,63.37
2018-02-25T14:39:50.550Z,63.46
2018-02-25T14:42:19.041Z,63.10
2018-02-25T14:44:47.512Z,62.77
2018-02-25T14:47:15.975Z,62.77
2018-02-25T14:49:44.474Z,63.22
2018-02-25T14:52:12.925Z,63.13
2018-02-25T14:54:41.428Z,63.19
2018-02-25T14:57:09.959Z,63.00
2018-02-25T14:59:38.468Z,63.02
2018-02-25T15:02:06.990Z,62.76
2018-02-25T15:04:35.435Z,62.98
2018-02-25T15:07:03.888Z,63.20
2018-02-25T15:09:32.370Z,63.11
2018-02-25T15:12:00.826Z,63.36
2018-02-25T15:14:29.330Z,63.33
2018-02-25T15:16:57.791Z,63.75
2018-02-25T15:19:26.259Z,63.29
2018-02-25T15:21:54.722Z,63.42
2018-02-25T15:24:23.223Z,63.17
2018-02-25T15:26:51.680Z,63.70
2018-02-25T15:29:20.141Z,63.58
2018-02-25T15:31:48.664Z,63.32
2018-02-25T15:34:17.129Z,63.56
2018-02-25T15:36:45.582Z,63.84
2018-02-25T15:39:14.070Z,63.70
2018-02-25T15:41:42.666Z,63.45
2018-02-25T15:44:11.126Z,63.59
2018-02-25T15:46:39.593Z,63.95
2018-02-25T15:49:08.100Z,64.33
2018-02-25T15:51:36.597Z,64.16
2018-02-25T15:54:05.062Z,64.39
2018-02-25T15:56:33.570Z,64.82
2018-02-25T15:59:02.033Z,65.12
2018-02-25T16:01:30.529Z,65.21
2018-02-25T16:03:58.994Z,65.54
2018-02-25T16:06:27.499Z,65.65
2018-02-25T16:08:56.011Z,65.58
2018-02-25T16:11:24.465Z,65.42
2018-02-25T16:13:52.926Z,65.60
2018-02-25T16:16:21.429Z,65.71
2018-02-25T16:18:49.890Z,65.72
2018-02-25T16:21:18.349Z,66.08
2018-02-25T16:23:46.861Z,66.38
2018-02-25T16:26:15.365Z,66.44
2018-02-25T16:28:43.803Z,66.63
2018-02-25T16:31:12.257Z,66.79
2018-02-25T16:33:40.728Z,66.42
2018-02-25T16:36:09.228Z,66.63
2018-02-25T16:38:37.681Z,66.68
2018-02-25T16:41:06.171Z,66.84
2018-02-25T16:43:34.660Z,66.85
2018-02-25T16:46:03.158Z,67.18
2018-02-25T16:48:31.674Z,67.21
2018-02-25T16:51:00.167Z,66.90
2018-02-25T16:53:28.627Z,66.67
2018-02-25T16:55:57.168Z,66.62
2018-02-25T16:58:25.606Z,67.05
2018-02-25T17:00:54.094Z,67.16
2018-02-25T17:03:22.572Z,67.32
2018-02-25T17:05:51.076Z,67.72
2018-02-25T17:08:19.577Z,67.22
2018-02-25T17:10:48.075Z,67.53
2018-02-25T17:13:16.567Z,67.34
2018-02-25T17:15:45.030Z,67.09
2018-02-25T17:18:13.535Z,67.56
2018-02-25T17:20:42.011Z,67.42
2018-02-25T17:23:10.510Z,67.73
2018-02-25T17:25:39.030Z,67.15
2018-02-25T17:28:07.523Z,67.01
2018-02-25T17:30:36.027Z,67.04
2018-02-25T17:33:04.530Z,66.90
2018-02-25T17:35:32.982Z,67.05
2018-02-25T17:38:01.822Z,67.01
2018-02-25T17:40:30.299Z,67.29
2018-02-25T17:42:58.756Z,67.48
2018-02-25T17:45:27.242Z,67.67
2018-02-25T17:47:55.727Z,69.21
2018-02-25T17:50:24.178Z,68.48
2018-02-25T17:52:52.634Z,68.63
2018-02-25T17:55:24.520Z,68.40
2018-02-25T17:57:49.618Z,67.48
2018-02-25T18:00:18.142Z,67.06
2018-02-25T18:02:46.606Z,67.13
2018-02-25T18:05:15.106Z,67.34
2018-02-25T18:07:43.559Z,66.87
2018-02-25T18:10:12.021Z,67.16
2018-02-25T18:12:40.535Z,67.03
2018-02-25T18:15:09.006Z,67.43
2018-02-25T18:17:37.499Z,67.81
2018-02-25T18:20:05.961Z,67.95
2018-02-25T18:22:34.472Z,67.98
2018-02-25T18:25:02.982Z,68.06
2018-02-25T18:27:31.442Z,68.40
2018-02-25T18:29:59.944Z,68.75
2018-02-25T18:32:28.465Z,68.86
2018-02-25T18:34:56.928Z,68.90
2018-02-25T18:37:25.429Z,69.18
2018-02-25T18:39:53.886Z,69.61
2018-02-25T18:42:22.398Z,69.70
2018-02-25T18:44:50.851Z,69.93
2018-02-25T18:47:19.309Z,70.19
2018-02-25T18:49:47.802Z,70.29
2018-02-25T18:52:16.274Z,71.50
2018-02-25T18:54:44.770Z,70.83
2018-02-25T18:57:13.278Z,71.76
2018-02-25T18:59:41.806Z,70.85
2018-02-25T19:02:10.302Z,71.25
2018-02-25T19:04:38.821Z,70.71
2018-02-25T19:07:07.281Z,70.23
2018-02-25T19:09:35.734Z,70.27
2018-02-25T19:12:04.233Z,70.74
2018-02-25T19:14:32.704Z,70.62
2018-02-25T19:17:01.204Z,71.10
2018-02-25T19:19:29.714Z,70.87
2018-02-25T19:21:58.213Z,71.25
2018-02-25T19:24:26.670Z,71.31
2018-02-25T19:26:55.142Z,71.02
2018-02-25T19:29:23.656Z,70.70
2018-02-25T19:31:52.128Z,70.93
2018-02-25T19:34:20.654Z,70.85
2018-02-25T19:36:54.527Z,70.38
2018-02-25T19:39:28.479Z,70.97
2018-02-25T19:41:56.932Z,70.89
2018-02-25T19:44:25.445Z,71.49
2018-02-25T19:46:53.952Z,70.76
2018-02-25T19:49:22.458Z,70.61
2018-02-25T19:51:51.042Z,70.50
2018-02-25T19:54:19.537Z,70.66
2018-02-25T19:56:48.038Z,71.09
2018-02-25T19:59:16.506Z,70.86
2018-02-25T20:01:44.973Z,70.66
2018-02-25T20:04:13.470Z,70.74
2018-02-25T20:06:41.962Z,71.31
2018-02-25T20:09:10.430Z,70.92
2018-02-25T20:11:38.926Z,70.95
2018-02-25T20:14:07.387Z,70.58
2018-02-25T20:16:35.882Z,70.62
2018-02-25T20:19:04.343Z,70.31
2018-02-25T20:21:32.872Z,69.94
2018-02-25T20:24:01.379Z,70.05
2018-02-25T20:26:29.854Z,70.00
2018-02-25T20:28:58.342Z,70.28
2018-02-25T20:31:26.801Z,69.92
2018-02-25T20:33:55.329Z,69.85
2018-02-25T20:36:23.834Z,70.21
2018-02-25T20:38:52.363Z,69.89
2018-02-25T20:41:20.866Z,70.06
2018-02-25T20:43:49.318Z,70.24
2018-02-25T20:46:17.857Z,70.10
2018-02-25T20:48:46.368Z,69.94
2018-02-25T20:51:14.847Z,69.20
2018-02-25T20:53:43.342Z,69.15
2018-02-25T20:56:11.802Z,68.86
2018-02-25T20:58:40.299Z,69.00
2018-02-25T21:01:08.758Z,69.23
2018-02-25T21:03:37.272Z,69.61
2018-02-25T21:06:05.773Z,69.63
2018-02-25T21:08:34.245Z,69.85
2018-02-25T21:11:02.747Z,69.96
2018-02-25T21:13:31.210Z,70.04
2018-02-25T21:15:59.790Z,69.85
2018-02-25T21:18:28.301Z,69.89
2018-02-25T21:20:56.811Z,69.53
2018-02-25T21:23:25.319Z,68.30
2018-02-25T21:25:53.847Z,68.44
2018-02-25T21:28:22.310Z,68.04
2018-02-25T21:30:50.790Z,67.68
2018-02-25T21:33:19.298Z,68.42
2018-02-25T21:35:47.758Z,68.31
2018-02-25T21:38:16.258Z,68.13
2018-02-25T21:40:44.707Z,68.25
2018-02-25T21:43:13.222Z,68.03
2018-02-25T21:45:41.722Z,68.09
2018-02-25T21:48:10.182Z,67.73
2018-02-25T21:50:38.690Z,67.87
2018-02-25T21:53:07.170Z,67.82
2018-02-25T21:55:36.458Z,67.94
2018-02-25T21:58:10.410Z,67.88
2018-02-25T22:00:44.510Z,67.72
2018-02-25T22:06:06.129Z,67.58
2018-02-25T22:08:34.594Z,67.57
2018-02-25T22:11:03.128Z,67.81
2018-02-25T22:13:31.634Z,68.20
2018-02-25T22:16:00.147Z,67.75
2018-02-25T22:18:28.685Z,67.76
2018-02-25T22:20:57.182Z,68.03
2018-02-25T22:23:25.694Z,67.82
2018-02-25T22:25:54.154Z,67.68
2018-02-25T22:28:22.614Z,68.17
2018-02-25T22:30:51.110Z,68.09
2018-02-25T22:33:19.606Z,68.31
2018-02-25T22:35:48.105Z,68.09
2018-02-25T22:38:16.608Z,68.75
2018-02-25T22:40:45.106Z,68.83
2018-02-25T22:43:13.606Z,68.41
2018-02-25T22:45:42.069Z,68.19
2018-02-25T22:48:10.594Z,68.27
2018-02-25T22:50:39.069Z,68.68
2018-02-25T22:53:07.530Z,68.69
2018-02-25T22:55:36.030Z,68.62
2018-02-25T22:58:04.526Z,68.63
2018-02-25T23:00:32.995Z,68.53
2018-02-25T23:03:01.517Z,68.88
2018-02-25T23:05:30.026Z,68.88
2018-02-25T23:07:58.529Z,68.72
2018-02-25T23:10:26.990Z,68.70
2018-02-25T23:12:55.455Z,68.46
2018-02-25T23:15:23.943Z,68.84
2018-02-25T23:17:52.418Z,68.77
2018-02-25T23:20:20.926Z,68.56
2018-02-25T23:22:49.400Z,68.68
2018-02-25T23:25:17.871Z,68.67
2018-02-25T23:27:46.385Z,69.04
2018-02-25T23:30:14.849Z,69.74
2018-02-25T23:32:43.325Z,69.58
2018-02-25T23:35:11.830Z,69.35
2018-02-25T23:37:40.296Z,69.41
2018-02-25T23:40:08.797Z,69.61
2018-02-25T23:42:37.306Z,69.72
2018-02-25T23:45:05.830Z,69.70
2018-02-25T23:47:34.334Z,70.14
2018-02-25T23:50:02.802Z,70.58
2018-02-25T23:52:31.306Z,70.05
2018-02-25T23:54:59.834Z,70.17
2018-02-25T23:57:28.310Z,69.85
2018-02-25T23:59:56.756Z,69.89
